Time;durP1;ratioP1;P1;durP2;ratioP2;P2;SDS_P1;SDS_P2;PMS_P1;PMS_P2;Temp;Humidity;BMP_temperature;BMP_pressure;BME280_temperature;BME280_humidity;BME280_pressure;Samples;Min_cycle;Max_cycle;Signal;HPM_P1;HPM_P2
2023/03/30 00:00:19;;;;;;;;;15.00;12.50;;;;;9.97;36.93;98877.41;6072871;28;96555;-67
2023/03/30 00:03:23;;;;;;;;;13.00;12.00;;;;;10.01;36.75;98864.38;6063907;28;97038;-68
2023/03/30 00:06:26;;;;;;;;;12.00;12.00;;;;;10.07;36.62;98866.16;6069581;28;96474;-67
2023/03/30 00:09:32;;;;;;;;;14.40;14.00;;;;;10.12;36.57;98860.94;6090596;28;96908;-68
2023/03/30 00:12:35;;;;;;;;;11.20;11.20;;;;;10.20;36.58;98847.25;6090345;28;96173;-67
2023/03/30 00:15:39;;;;;;;;;13.40;12.40;;;;;10.33;36.18;98846.31;6072393;28;96493;-68
2023/03/30 00:18:44;;;;;;;;;12.00;11.25;;;;;10.29;36.25;98839.72;6090627;28;96327;-68
2023/03/30 00:21:48;;;;;;;;;10.00;10.00;;;;;10.33;35.99;98844.44;6048532;28;98388;-67
2023/03/30 00:24:53;;;;;;;;;12.60;12.40;;;;;10.29;36.04;98845.09;6090522;28;97081;-68
2023/03/30 00:27:56;;;;;;;;;12.60;11.00;;;;;10.37;36.12;98853.72;6072698;28;98569;-67
2023/03/30 00:30:59;;;;;;;;;11.00;10.00;;;;;10.52;35.89;98856.06;6071776;28;96695;-66
2023/03/30 00:34:03;;;;;;;;;11.80;10.80;;;;;10.60;35.82;98854.97;6072781;28;96480;-67
2023/03/30 00:37:06;;;;;;;;;9.60;8.60;;;;;10.64;35.82;98842.69;6056983;28;97241;-67
2023/03/30 00:40:16;;;;;;;;;8.00;8.00;;;;;10.69;35.79;98842.84;6081586;28;96250;-68
2023/03/30 00:43:19;;;;;;;;;10.40;9.60;;;;;10.70;35.75;98837.22;6064759;28;97340;-68
2023/03/30 00:46:23;;;;;;;;;11.40;11.00;;;;;10.72;35.83;98837.00;6049665;28;98840;-67
2023/03/30 00:49:26;;;;;;;;;10.00;9.80;;;;;10.72;35.64;98832.44;6068705;28;96518;-68
2023/03/30 00:52:32;;;;;;;;;9.40;9.40;;;;;10.80;35.82;98828.59;6072997;28;96806;-67
2023/03/30 00:55:40;;;;;;;;;9.00;9.00;;;;;10.85;35.67;98834.97;6090064;28;96292;-67
2023/03/30 00:58:44;;;;;;;;;10.20;8.20;;;;;10.89;35.58;98829.16;6090061;28;96435;-67
2023/03/30 01:01:49;;;;;;;;;9.00;8.00;;;;;10.90;35.47;98833.50;6071310;28;96467;-67
2023/03/30 01:04:56;;;;;;;;;11.75;11.00;;;;;10.86;35.56;98825.84;6071519;28;99834;-67
2023/03/30 01:08:00;;;;;;;;;11.50;9.00;;;;;10.96;35.56;98830.72;6077196;28;96344;-67
2023/03/30 01:11:07;;;;;;;;;11.00;10.75;;;;;10.97;35.44;98824.28;6075842;28;96260;-67
2023/03/30 01:14:13;;;;;;;;;14.00;13.00;;;;;10.97;35.68;98818.88;6076259;28;96383;-68
2023/03/30 01:17:27;;;;;;;;;10.80;10.20;;;;;11.02;35.92;98821.72;6060155;28;98889;-68
2023/03/30 01:21:24;;;;;;;;;10.60;9.60;;;;;11.05;35.97;98809.66;6093440;28;96654;-67
2023/03/30 01:25:10;;;;;;;;;12.80;12.40;;;;;11.09;35.55;98817.06;6094147;28;96317;-68
2023/03/30 01:28:24;;;;;;;;;11.00;11.00;;;;;11.10;36.03;98810.63;6051621;28;97294;-67
2023/03/30 01:31:48;;;;;;;;;12.60;11.20;;;;;10.93;35.90;98779.94;6086761;28;96267;-67
2023/03/30 01:35:30;;;;;;;;;12.80;11.80;;;;;11.05;35.83;98798.84;6076275;28;97020;-67
2023/03/30 01:39:16;;;;;;;;;10.20;9.60;;;;;11.02;35.92;98802.00;6022842;28;96682;-68
2023/03/30 01:42:24;;;;;;;;;14.00;12.00;;;;;10.95;36.16;98799.38;6037818;28;96771;-67
2023/03/30 01:45:41;;;;;;;;;13.00;13.00;;;;;10.95;36.28;98804.78;6069017;28;97451;-68
2023/03/30 01:48:53;;;;;;;;;11.00;10.60;;;;;10.91;36.20;98802.75;6054354;28;96493;-68
2023/03/30 01:52:05;;;;;;;;;14.40;13.00;;;;;10.86;36.18;98806.13;6074306;28;96499;-68
2023/03/30 01:55:17;;;;;;;;;9.00;9.00;;;;;10.83;36.37;98804.72;6076773;28;98146;-67
2023/03/30 01:58:28;;;;;;;;;14.00;14.00;;;;;10.80;36.49;98788.97;6058601;28;96916;-68
2023/03/30 02:01:36;;;;;;;;;10.00;10.00;;;;;10.81;36.46;98790.63;6038438;28;96655;-68
2023/03/30 02:04:44;;;;;;;;;14.00;11.60;;;;;10.80;36.49;98798.94;6074284;28;96720;-67
2023/03/30 02:07:52;;;;;;;;;10.60;10.60;;;;;10.75;36.55;98796.13;6070095;28;96393;-67
2023/03/30 02:10:59;;;;;;;;;12.00;11.00;;;;;10.77;36.58;98799.41;6093349;28;96802;-67
2023/03/30 02:14:05;;;;;;;;;12.60;10.60;;;;;10.76;36.76;98811.22;6075342;28;96559;-68
2023/03/30 02:17:15;;;;;;;;;13.50;13.00;;;;;10.74;36.75;98797.16;6092147;28;96363;-68
2023/03/30 02:20:18;;;;;;;;;12.40;11.40;;;;;10.69;37.30;98800.53;6070182;28;96420;-68
2023/03/30 02:23:24;;;;;;;;;13.00;12.00;;;;;10.69;36.98;98797.84;6067469;28;97593;-68
2023/03/30 02:26:30;;;;;;;;;10.75;10.00;;;;;10.70;37.03;98801.38;6053351;28;97385;-68
2023/03/30 02:29:36;;;;;;;;;12.00;12.00;;;;;10.71;37.20;98792.22;6092026;28;96932;-68
2023/03/30 02:32:42;;;;;;;;;12.00;10.20;;;;;10.71;37.03;98795.72;6081639;28;96437;-67
2023/03/30 02:36:14;;;;;;;;;11.00;11.00;;;;;10.70;37.42;98779.81;6056989;28;96439;-67
2023/03/30 02:39:40;;;;;;;;;11.50;10.50;;;;;10.69;37.65;98780.84;6067577;28;96467;-67
2023/03/30 02:43:03;;;;;;;;;13.00;11.20;;;;;10.70;37.42;98774.41;6081935;28;96354;-67
2023/03/30 02:46:27;;;;;;;;;11.80;10.00;;;;;10.74;37.20;98770.19;6084016;28;96335;-67
2023/03/30 02:49:48;;;;;;;;;12.00;11.00;;;;;10.75;37.57;98763.78;6050147;28;96611;-67
2023/03/30 02:52:55;;;;;;;;;9.40;9.00;;;;;10.74;37.29;98760.25;6045541;28;96672;-67
2023/03/30 02:56:10;;;;;;;;;11.50;11.00;;;;;10.78;37.89;98764.13;6067341;28;96285;-67
2023/03/30 02:59:32;;;;;;;;;8.80;8.80;;;;;10.79;37.78;98755.00;6067507;28;96465;-68
2023/03/30 03:02:39;;;;;;;;;10.00;8.50;;;;;10.82;37.88;98756.41;6079754;28;96360;-67
2023/03/30 03:06:01;;;;;;;;;8.20;8.00;;;;;10.81;37.84;98755.56;6054868;28;96744;-67
2023/03/30 03:09:08;;;;;;;;;11.00;10.00;;;;;10.85;38.13;98761.34;6076359;28;97460;-68
2023/03/30 03:12:11;;;;;;;;;9.75;9.00;;;;;10.78;38.09;98745.25;6070774;28;96248;-65
2023/03/30 03:15:17;;;;;;;;;10.00;8.75;;;;;10.84;38.30;98746.22;6095571;28;96648;-65
2023/03/30 03:18:38;;;;;;;;;9.00;9.00;;;;;10.85;38.33;98751.38;6113323;28;96732;-65
2023/03/30 03:21:42;;;;;;;;;7.75;7.25;;;;;10.85;38.56;98740.59;6130647;28;96342;-64
2023/03/30 03:24:45;;;;;;;;;9.20;9.20;;;;;10.84;38.48;98743.53;6106573;28;98429;-65
2023/03/30 03:28:27;;;;;;;;;9.50;8.50;;;;;10.82;39.06;98740.22;6090567;28;97536;-64
2023/03/30 03:31:38;;;;;;;;;10.20;9.20;;;;;10.78;39.01;98739.03;6075022;28;96849;-65
2023/03/30 03:34:43;;;;;;;;;10.80;10.00;;;;;10.81;39.00;98730.47;6097728;28;96823;-65
2023/03/30 03:37:48;;;;;;;;;10.00;9.00;;;;;10.83;39.28;98731.09;6109598;28;96500;-65
2023/03/30 03:40:51;;;;;;;;;8.00;8.00;;;;;10.88;39.16;98728.53;6108654;28;96662;-65
2023/03/30 03:43:55;;;;;;;;;9.00;8.00;;;;;10.95;39.13;98718.47;6126600;28;96288;-65
2023/03/30 03:47:00;;;;;;;;;11.00;10.25;;;;;10.94;39.06;98713.31;6108347;28;96491;-64
2023/03/30 03:50:08;;;;;;;;;7.40;7.40;;;;;10.91;38.97;98694.88;6082889;28;96863;-64
2023/03/30 03:53:12;;;;;;;;;9.00;9.00;;;;;10.97;39.06;98702.88;6092387;28;96720;-65
2023/03/30 03:56:16;;;;;;;;;9.00;8.00;;;;;10.95;39.11;98707.69;6115009;28;96368;-64
2023/03/30 03:59:19;;;;;;;;;10.20;8.60;;;;;10.97;39.26;98702.88;6104870;28;96715;-64
2023/03/30 04:02:24;;;;;;;;;9.00;8.00;;;;;11.01;39.34;98698.69;6094714;28;98833;-65
2023/03/30 04:05:28;;;;;;;;;9.00;9.00;;;;;11.02;39.26;98696.81;6085116;28;96427;-65
2023/03/30 04:08:32;;;;;;;;;10.00;9.40;;;;;11.05;39.46;98696.34;6078140;28;96673;-64
2023/03/30 04:11:43;;;;;;;;;8.00;8.00;;;;;11.02;39.56;98681.44;6094869;28;96315;-65
2023/03/30 04:15:00;;;;;;;;;10.00;9.00;;;;;11.08;39.43;98679.72;6080063;28;99360;-65
2023/03/30 04:18:24;;;;;;;;;8.25;8.25;;;;;11.11;39.85;98677.38;6097474;28;96802;-65
2023/03/30 04:21:45;;;;;;;;;7.00;5.80;;;;;11.12;39.58;98684.41;6077447;28;96706;-65
2023/03/30 04:25:07;;;;;;;;;8.00;8.00;;;;;11.06;40.16;98666.44;6091754;28;96791;-65
2023/03/30 04:28:20;;;;;;;;;5.00;4.00;;;;;11.14;40.30;98670.72;6109900;28;96315;-65
2023/03/30 04:31:45;;;;;;;;;9.20;8.80;;;;;11.21;40.09;98669.53;6109522;28;96254;-65
2023/03/30 04:34:53;;;;;;;;;7.00;6.40;;;;;11.18;40.04;98659.22;6115792;28;96213;-65
2023/03/30 04:38:22;;;;;;;;;6.40;6.40;;;;;11.30;39.97;98668.16;6068468;28;99517;-65
2023/03/30 04:41:51;;;;;;;;;8.00;8.00;;;;;11.37;40.07;98667.22;6091592;28;96962;-65
2023/03/30 04:45:18;;;;;;;;;7.20;7.20;;;;;11.36;40.43;98654.78;6111218;28;96417;-65
2023/03/30 04:48:54;;;;;;;;;9.00;9.00;;;;;11.41;40.32;98652.22;6074172;28;97129;-65
2023/03/30 04:52:29;;;;;;;;;9.00;9.00;;;;;11.40;40.29;98642.47;6079325;28;98412;-65
2023/03/30 04:56:07;;;;;;;;;9.00;8.40;;;;;11.53;40.10;98651.16;6085646;28;96401;-65
2023/03/30 04:59:29;;;;;;;;;9.00;9.00;;;;;11.65;39.99;98640.38;6105187;28;96458;-65
2023/03/30 05:03:02;;;;;;;;;10.00;9.00;;;;;11.80;39.90;98638.06;6067252;28;96698;-65
2023/03/30 05:06:28;;;;;;;;;10.00;9.00;;;;;11.93;39.87;98635.09;6090446;28;96283;-65
2023/03/30 05:09:53;;;;;;;;;8.00;8.00;;;;;12.06;39.95;98636.75;6108795;28;96369;-64
2023/03/30 05:13:15;;;;;;;;;8.20;8.20;;;;;12.14;40.20;98636.38;6108209;28;96349;-65
2023/03/30 05:16:18;;;;;;;;;9.40;8.40;;;;;12.26;39.92;98625.56;6110429;28;97545;-65
2023/03/30 05:19:41;;;;;;;;;7.60;7.00;;;;;12.44;39.88;98620.78;6091184;28;98228;-66
2023/03/30 05:23:08;;;;;;;;;7.00;7.00;;;;;12.65;39.24;98627.44;6101475;28;96303;-65
2023/03/30 05:26:33;;;;;;;;;6.25;6.25;;;;;12.75;39.02;98630.34;6089923;28;97962;-63
2023/03/30 05:30:02;;;;;;;;;7.00;6.00;;;;;12.81;38.96;98632.03;6055039;28;97305;-63
2023/03/30 05:33:35;;;;;;;;;7.00;7.00;;;;;12.84;38.86;98630.75;6092295;28;96634;-63
2023/03/30 05:36:57;;;;;;;;;7.00;7.00;;;;;12.85;39.22;98635.09;6106703;28;96393;-63
2023/03/30 05:40:21;;;;;;;;;7.80;7.00;;;;;12.79;38.60;98626.06;6100714;28;96310;-63
2023/03/30 05:43:44;;;;;;;;;7.00;6.00;;;;;12.76;38.41;98629.25;6095219;28;96419;-63
2023/03/30 05:47:11;;;;;;;;;9.00;8.00;;;;;12.79;38.75;98636.91;6083842;28;96875;-63
2023/03/30 05:50:22;;;;;;;;;7.60;6.80;;;;;12.82;38.70;98635.56;6092625;28;96369;-63
2023/03/30 05:53:32;;;;;;;;;6.20;5.80;;;;;12.85;38.74;98638.59;6075142;28;98370;-64
2023/03/30 05:56:54;;;;;;;;;7.00;6.60;;;;;12.88;38.62;98640.84;6093776;28;97536;-63
2023/03/30 06:00:22;;;;;;;;;8.00;7.50;;;;;12.93;38.43;98630.13;6092289;28;96253;-63
2023/03/30 06:03:35;;;;;;;;;5.00;5.00;;;;;12.96;38.33;98631.50;6076698;28;96394;-64
2023/03/30 06:06:39;;;;;;;;;7.80;7.20;;;;;12.99;38.40;98626.44;6076770;28;96351;-64
2023/03/30 06:09:44;;;;;;;;;6.80;6.20;;;;;12.99;38.33;98631.03;6092531;28;96292;-64
2023/03/30 06:12:56;;;;;;;;;5.40;5.40;;;;;13.05;38.48;98615.72;6056451;28;96825;-64
2023/03/30 06:16:17;;;;;;;;;9.00;8.25;;;;;13.05;38.56;98616.50;6090526;28;96630;-64
2023/03/30 06:19:21;;;;;;;;;7.50;7.50;;;;;13.11;38.69;98620.13;6059559;28;96628;-64
2023/03/30 06:22:25;;;;;;;;;9.00;9.00;;;;;13.13;38.27;98604.50;6075689;28;98953;-64
2023/03/30 06:25:46;;;;;;;;;10.00;9.00;;;;;13.08;38.36;98605.22;6091880;28;96373;-63
2023/03/30 06:28:49;;;;;;;;;10.00;9.00;;;;;13.02;38.63;98603.47;6075633;28;96491;-64
2023/03/30 06:31:54;;;;;;;;;6.00;6.00;;;;;12.98;38.67;98589.63;6091505;28;96856;-64
2023/03/30 06:35:16;;;;;;;;;8.00;6.50;;;;;13.12;38.69;98595.56;6093037;28;96693;-64
2023/03/30 06:38:21;;;;;;;;;8.00;8.00;;;;;13.19;38.57;98587.31;6075539;28;96414;-63
2023/03/30 06:41:27;;;;;;;;;6.33;6.00;;;;;13.38;38.47;98586.81;6090837;28;96434;-63
2023/03/30 06:44:30;;;;;;;;;7.60;7.40;;;;;13.59;38.01;98585.19;6075100;28;97576;-63
2023/03/30 06:47:38;;;;;;;;;6.80;6.80;;;;;13.70;37.94;98581.59;6075657;28;96476;-63
2023/03/30 06:50:42;;;;;;;;;7.00;7.00;;;;;13.92;37.58;98580.81;6075202;28;97010;-63
2023/03/30 06:53:53;;;;;;;;;9.00;8.40;;;;;14.08;37.30;98582.63;6092767;28;96599;-64
2023/03/30 06:56:56;;;;;;;;;7.40;7.40;;;;;14.28;37.06;98582.88;6063430;28;97031;-64
2023/03/30 07:00:00;;;;;;;;;7.40;7.40;;;;;14.40;36.99;98569.22;6067227;28;96400;-64
2023/03/30 07:03:25;;;;;;;;;5.00;5.00;;;;;14.65;36.32;98575.75;6056628;28;96313;-64
2023/03/30 07:06:49;;;;;;;;;7.00;6.00;;;;;14.67;36.43;98570.06;6047911;28;96375;-64
2023/03/30 07:09:52;;;;;;;;;11.00;10.00;;;;;14.80;36.67;98572.38;6066946;28;96610;-64
2023/03/30 07:12:56;;;;;;;;;5.00;5.00;;;;;14.95;36.18;98564.41;6050420;28;96703;-64
2023/03/30 07:15:59;;;;;;;;;5.00;5.00;;;;;15.07;35.92;98566.91;6067327;28;96455;-63
2023/03/30 07:19:07;;;;;;;;;8.00;7.00;;;;;15.29;35.44;98572.28;6051177;28;98457;-64
2023/03/30 07:22:11;;;;;;;;;6.67;6.67;;;;;15.49;35.13;98573.22;6066883;28;96992;-64
2023/03/30 07:25:15;;;;;;;;;7.60;7.00;;;;;15.63;35.10;98570.94;6083322;28;96407;-63
2023/03/30 07:28:19;;;;;;;;;6.20;5.20;;;;;15.78;34.62;98570.22;6066426;28;96881;-63
2023/03/30 07:31:23;;;;;;;;;5.00;4.60;;;;;15.91;34.94;98565.09;6076583;28;96442;-64
2023/03/30 07:34:28;;;;;;;;;6.00;5.00;;;;;15.91;34.62;98556.13;6075682;28;96923;-64
2023/03/30 07:37:32;;;;;;;;;5.00;5.00;;;;;16.01;34.89;98550.75;6084005;28;96271;-64
2023/03/30 07:40:36;;;;;;;;;6.50;6.50;;;;;16.12;34.82;98547.00;6083954;28;96281;-64
2023/03/30 07:43:41;;;;;;;;;5.00;5.00;;;;;16.24;34.17;98533.16;6083706;28;96923;-64
2023/03/30 07:46:44;;;;;;;;;6.00;5.00;;;;;16.68;33.84;98548.00;6085995;28;96391;-64
2023/03/30 07:49:55;;;;;;;;;7.80;7.40;;;;;16.96;32.95;98543.16;6087688;28;96355;-64
2023/03/30 07:52:59;;;;;;;;;7.00;6.75;;;;;17.16;32.76;98543.13;6087634;28;96416;-64
2023/03/30 07:56:03;;;;;;;;;6.50;5.75;;;;;17.19;32.85;98534.44;6065494;28;97841;-64
2023/03/30 07:59:16;;;;;;;;;6.00;6.00;;;;;17.32;32.80;98545.59;6093149;28;97321;-65
2023/03/30 08:02:20;;;;;;;;;6.80;6.80;;;;;17.48;33.06;98538.22;6074378;28;96359;-64
2023/03/30 08:05:28;;;;;;;;;7.75;6.00;;;;;17.57;32.61;98543.94;6080552;28;96391;-63
2023/03/30 08:08:43;;;;;;;;;5.60;5.60;;;;;17.89;31.91;98536.25;6074583;28;96297;-64
2023/03/30 08:11:47;;;;;;;;;6.20;5.80;;;;;18.22;31.26;98531.22;6077671;28;96904;-64
2023/03/30 08:14:50;;;;;;;;;5.00;5.00;;;;;18.45;31.03;98517.72;6081211;28;97050;-64
2023/03/30 08:17:53;;;;;;;;;5.00;5.00;;;;;18.56;30.96;98511.16;6091759;28;96895;-64
2023/03/30 08:20:58;;;;;;;;;5.60;5.00;;;;;18.45;30.52;98500.53;6082213;28;96777;-64
2023/03/30 08:24:01;;;;;;;;;6.40;5.40;;;;;18.46;30.86;98508.47;6072055;28;96278;-65
2023/03/30 08:27:05;;;;;;;;;5.00;5.00;;;;;18.42;30.73;98512.81;6088813;28;96445;-64
2023/03/30 08:30:11;;;;;;;;;5.00;5.00;;;;;18.64;29.87;98515.19;6089499;28;96387;-64
2023/03/30 08:33:15;;;;;;;;;4.00;4.00;;;;;18.92;29.59;98517.19;6085979;28;96718;-64
2023/03/30 08:36:20;;;;;;;;;5.60;5.00;;;;;19.12;29.72;98504.44;6087300;28;96315;-64
2023/03/30 08:39:23;;;;;;;;;6.00;6.00;;;;;19.33;29.40;98503.19;6077992;28;96295;-64
2023/03/30 08:42:49;;;;;;;;;7.60;7.00;;;;;19.53;28.56;98513.13;6077871;28;97325;-64
2023/03/30 08:45:53;;;;;;;;;5.75;5.75;;;;;19.70;28.75;98521.69;6077293;28;98772;-64
2023/03/30 08:49:00;;;;;;;;;7.00;6.67;;;;;20.05;28.17;98512.28;6078571;28;96368;-65
2023/03/30 08:52:05;;;;;;;;;5.00;5.00;;;;;20.22;27.79;98498.94;6101028;28;96383;-65
2023/03/30 08:55:21;;;;;;;;;6.60;6.60;;;;;20.43;27.26;98505.00;6102817;28;96343;-64
2023/03/30 08:58:39;;;;;;;;;8.00;8.00;;;;;20.50;27.35;98492.53;6087991;28;96465;-64
2023/03/30 09:01:50;;;;;;;;;6.50;6.00;;;;;20.18;28.09;98493.22;6079320;28;96451;-63
2023/03/30 09:05:00;;;;;;;;;5.33;5.33;;;;;19.97;28.18;98483.66;6075182;28;98415;-64
2023/03/30 09:08:13;;;;;;;;;5.25;5.00;;;;;19.75;28.98;98505.22;6099723;28;96738;-64
2023/03/30 09:11:28;;;;;;;;;5.40;5.00;;;;;19.58;28.47;98494.75;6086213;28;96706;-64
2023/03/30 09:14:36;;;;;;;;;5.00;5.00;;;;;19.39;29.05;98502.84;6100751;28;96298;-64
2023/03/30 09:17:43;;;;;;;;;6.00;6.00;;;;;19.28;29.33;98498.56;6083452;28;99513;-64
2023/03/30 09:20:50;;;;;;;;;6.00;6.00;;;;;18.95;29.72;98491.22;6100800;28;96307;-64
2023/03/30 09:23:57;;;;;;;;;4.00;4.00;;;;;18.83;29.91;98477.91;6083710;28;96561;-64
2023/03/30 09:27:06;;;;;;;;;4.50;4.50;;;;;18.61;30.07;98480.28;6103335;28;96212;-64
2023/03/30 09:30:18;;;;;;;;;5.00;4.00;;;;;18.51;30.33;98461.19;6088423;28;96658;-64
2023/03/30 09:33:31;;;;;;;;;5.00;5.00;;;;;18.58;30.62;98456.25;6106052;28;96388;-64
2023/03/30 09:36:39;;;;;;;;;4.00;4.00;;;;;18.64;30.98;98454.31;6105408;28;96364;-64
2023/03/30 09:39:45;;;;;;;;;4.00;4.00;;;;;18.59;30.41;98453.25;6105438;28;96264;-65
2023/03/30 09:42:58;;;;;;;;;5.20;5.20;;;;;18.70;30.62;98445.81;6088621;28;96749;-64
2023/03/30 09:46:05;;;;;;;;;7.00;6.50;;;;;18.74;30.51;98429.66;6089089;28;99312;-64
2023/03/30 09:49:14;;;;;;;;;5.00;4.00;;;;;18.94;30.19;98433.03;6072586;28;96351;-64
2023/03/30 09:52:21;;;;;;;;;4.00;2.33;;;;;19.13;30.09;98440.50;6077296;28;96340;-64
2023/03/30 09:55:30;;;;;;;;;7.00;6.00;;;;;19.27;30.66;98430.53;6082631;28;96281;-64
2023/03/30 09:58:34;;;;;;;;;3.00;3.00;;;;;19.32;30.41;98428.56;6106014;28;96267;-64
2023/03/30 10:01:37;;;;;;;;;4.50;4.00;;;;;19.40;30.37;98413.47;6087002;28;96650;-64
2023/03/30 10:04:57;;;;;;;;;5.00;4.40;;;;;19.64;30.02;98419.78;6071727;28;98422;-64
2023/03/30 10:08:03;;;;;;;;;4.00;4.00;;;;;19.78;29.95;98411.66;6090002;28;97100;-65
2023/03/30 10:11:08;;;;;;;;;5.50;5.00;;;;;19.90;29.69;98412.03;6087142;28;96240;-65
2023/03/30 10:14:27;;;;;;;;;5.00;5.00;;;;;19.89;29.99;98397.53;6105210;28;96797;-64
2023/03/30 10:17:31;;;;;;;;;4.80;4.00;;;;;20.30;29.73;98396.97;6073422;28;96986;-64
2023/03/30 10:20:37;;;;;;;;;6.00;5.00;;;;;20.77;28.44;98398.72;6054648;28;96834;-64
2023/03/30 10:23:43;;;;;;;;;4.00;3.00;;;;;21.24;28.30;98389.44;6081588;28;96349;-64
2023/03/30 10:26:51;;;;;;;;;3.00;3.00;;;;;21.99;27.14;98370.59;6081633;28;96566;-64
2023/03/30 10:29:54;;;;;;;;;3.25;3.25;;;;;22.70;26.16;98376.34;6071019;28;97255;-64
2023/03/30 10:33:01;;;;;;;;;3.00;3.00;;;;;23.07;25.55;98359.47;6093718;28;98720;-64
2023/03/30 10:36:07;;;;;;;;;5.00;5.00;;;;;23.52;24.82;98362.09;6076691;28;97170;-65
2023/03/30 10:39:14;;;;;;;;;6.40;5.40;;;;;24.09;24.74;98371.94;6090275;28;96284;-64
2023/03/30 10:42:23;;;;;;;;;5.00;4.40;;;;;23.63;24.41;98345.00;6091875;28;96931;-64
2023/03/30 10:45:32;;;;;;;;;4.00;4.00;;;;;24.36;24.35;98367.31;6074054;28;97023;-65
2023/03/30 10:48:50;;;;;;;;;4.50;4.00;;;;;24.72;23.72;98353.19;6065384;28;96765;-65
2023/03/30 10:52:07;;;;;;;;;4.40;4.00;;;;;24.11;23.85;98322.88;6093599;28;96409;-65
2023/03/30 10:55:17;;;;;;;;;5.00;4.60;;;;;24.05;24.03;98320.59;6070900;28;96440;-64
2023/03/30 10:58:38;;;;;;;;;4.00;4.00;;;;;23.69;24.51;98327.22;6102049;28;96810;-64
2023/03/30 11:01:53;;;;;;;;;4.00;4.00;;;;;23.47;25.56;98323.75;6101179;28;96450;-64
2023/03/30 11:05:01;;;;;;;;;5.33;5.33;;;;;23.40;25.36;98315.94;6076139;28;97080;-65
2023/03/30 11:08:06;;;;;;;;;4.00;4.00;;;;;23.84;24.79;98316.88;6098692;28;98592;-64
2023/03/30 11:11:15;;;;;;;;;5.00;4.00;;;;;24.44;24.51;98305.88;6099048;28;96330;-64
2023/03/30 11:14:25;;;;;;;;;4.00;4.00;;;;;24.93;23.94;98307.25;6064339;28;99536;-64
2023/03/30 11:17:34;;;;;;;;;5.40;4.60;;;;;25.10;22.90;98295.34;6101731;28;96709;-64
2023/03/30 11:20:43;;;;;;;;;4.00;4.00;;;;;24.86;23.44;98277.41;6097410;28;96255;-64
2023/03/30 11:23:53;;;;;;;;;4.00;4.00;;;;;24.56;24.12;98257.22;6099482;28;96646;-65
2023/03/30 11:27:03;;;;;;;;;4.00;4.00;;;;;24.51;24.50;98284.97;6091447;28;96966;-64
2023/03/30 11:30:15;;;;;;;;;6.50;4.00;;;;;24.46;23.87;98287.06;6099190;28;96365;-63
2023/03/30 11:33:27;;;;;;;;;4.00;4.00;;;;;24.40;24.54;98283.69;6099706;28;96925;-64
2023/03/30 11:36:38;;;;;;;;;5.80;4.80;;;;;24.42;24.92;98281.41;6081428;28;96920;-64
2023/03/30 11:39:48;;;;;;;;;4.60;4.60;;;;;24.38;25.17;98274.13;6079743;28;98407;-64
2023/03/30 11:42:52;;;;;;;;;7.00;7.00;;;;;23.90;26.15;98266.81;6080918;28;96722;-64
2023/03/30 11:46:02;;;;;;;;;6.00;6.00;;;;;23.47;27.32;98274.22;6099965;28;96905;-64
2023/03/30 11:49:29;;;;;;;;;4.00;3.80;;;;;23.31;26.78;98265.59;6098946;28;96703;-64
2023/03/30 11:52:41;;;;;;;;;5.00;5.00;;;;;23.12;27.13;98268.59;6100474;28;96350;-65
2023/03/30 11:55:55;;;;;;;;;6.00;6.00;;;;;22.59;28.08;98274.13;6099572;28;96327;-64
2023/03/30 11:59:04;;;;;;;;;3.40;3.00;;;;;22.14;28.56;98265.13;6097869;28;96838;-64
2023/03/30 12:02:23;;;;;;;;;6.00;5.80;;;;;21.73;29.08;98272.66;6082470;28;98445;-64
2023/03/30 12:05:32;;;;;;;;;6.60;6.00;;;;;21.28;29.70;98263.50;6098525;28;96394;-63
2023/03/30 12:08:52;;;;;;;;;3.00;3.00;;;;;21.15;30.20;98265.16;6097140;28;96976;-64
2023/03/30 12:12:05;;;;;;;;;3.00;3.00;;;;;20.85;31.07;98239.13;6097144;28;96677;-64
2023/03/30 12:15:22;;;;;;;;;3.50;3.00;;;;;21.34;30.50;98238.44;6100445;28;96766;-64
2023/03/30 12:18:32;;;;;;;;;3.00;3.00;;;;;21.95;29.73;98231.56;6083597;28;98673;-64
2023/03/30 12:21:41;;;;;;;;;5.00;5.00;;;;;22.42;29.00;98230.09;6096928;28;97167;-64
2023/03/30 12:24:51;;;;;;;;;3.00;3.00;;;;;23.04;28.40;98213.59;6100699;28;96251;-64
2023/03/30 12:28:03;;;;;;;;;5.00;5.00;;;;;23.36;28.04;98201.38;6096943;28;96975;-65
2023/03/30 12:31:07;;;;;;;;;4.00;4.00;;;;;23.50;28.15;98200.13;6101815;28;96653;-63
2023/03/30 12:34:11;;;;;;;;;5.00;5.00;;;;;22.89;28.75;98196.41;6082086;28;96772;-63
2023/03/30 12:37:18;;;;;;;;;3.00;3.00;;;;;22.87;28.75;98190.41;6083473;28;96820;-64
2023/03/30 12:40:24;;;;;;;;;6.00;4.60;;;;;22.42;29.45;98191.66;6101163;28;96327;-63
2023/03/30 12:43:40;;;;;;;;;3.00;2.00;;;;;22.12;29.98;98206.16;6089706;28;96478;-64
2023/03/30 12:46:57;;;;;;;;;3.40;3.40;;;;;22.06;30.40;98204.66;6090902;28;96522;-63
2023/03/30 12:50:17;;;;;;;;;5.00;5.00;;;;;21.89;30.46;98197.91;6080095;28;96455;-64
2023/03/30 12:53:47;;;;;;;;;4.20;4.00;;;;;21.71;31.01;98178.88;6090892;28;96579;-63
2023/03/30 12:57:00;;;;;;;;;5.00;5.00;;;;;21.84;30.61;98200.78;6090432;28;96681;-64
2023/03/30 13:00:23;;;;;;;;;6.00;5.00;;;;;21.73;30.82;98207.63;6088864;28;96488;-64
2023/03/30 13:03:37;;;;;;;;;4.60;4.00;;;;;21.63;30.92;98207.06;6061423;28;96643;-63
2023/03/30 13:06:50;;;;;;;;;3.20;3.00;;;;;21.27;31.19;98213.34;6068633;28;96835;-64
2023/03/30 13:09:58;;;;;;;;;4.00;4.00;;;;;21.12;31.33;98216.38;6075748;28;97513;-64
2023/03/30 13:13:04;;;;;;;;;4.75;4.00;;;;;20.97;31.86;98208.47;6075354;28;98226;-64
2023/03/30 13:16:08;;;;;;;;;5.50;5.00;;;;;20.74;31.70;98205.66;6095020;28;96571;-63
2023/03/30 13:19:24;;;;;;;;;6.00;5.00;;;;;20.65;32.25;98212.94;6093273;28;96369;-63
2023/03/30 13:22:31;;;;;;;;;5.00;4.00;;;;;20.54;32.72;98224.38;6094127;28;96442;-64
2023/03/30 13:25:40;;;;;;;;;5.00;4.25;;;;;20.61;32.61;98224.81;6094350;28;97504;-62
2023/03/30 13:28:59;;;;;;;;;3.80;3.40;;;;;20.69;32.59;98215.88;6093996;28;96977;-64
2023/03/30 13:32:14;;;;;;;;;6.00;5.00;;;;;20.80;32.17;98211.03;6093191;28;96360;-64
2023/03/30 13:35:34;;;;;;;;;3.60;3.60;;;;;20.95;32.21;98205.25;6060259;28;96342;-64
2023/03/30 13:39:00;;;;;;;;;5.60;5.00;;;;;20.93;31.65;98221.97;6089801;28;96535;-64
2023/03/30 13:42:24;;;;;;;;;6.00;6.00;;;;;20.95;31.89;98202.50;6093232;28;96520;-64
2023/03/30 13:45:39;;;;;;;;;6.60;5.00;;;;;20.85;31.66;98197.22;6075197;28;98417;-63
2023/03/30 13:48:55;;;;;;;;;6.50;5.50;;;;;20.56;31.82;98203.81;6093649;28;96511;-64
2023/03/30 13:52:04;;;;;;;;;6.60;6.60;;;;;20.67;32.09;98205.22;6088800;28;96324;-64
2023/03/30 13:55:17;;;;;;;;;7.50;5.75;;;;;20.59;32.03;98205.13;6078413;28;97161;-64
2023/03/30 13:58:23;;;;;;;;;6.00;6.00;;;;;20.57;32.54;98199.16;6091020;28;96679;-64
2023/03/30 14:01:26;;;;;;;;;5.00;5.00;;;;;20.53;31.99;98198.94;6054585;28;96972;-64
2023/03/30 14:04:31;;;;;;;;;8.67;8.00;;;;;20.59;32.19;98200.47;6089483;28;96501;-64
2023/03/30 14:07:41;;;;;;;;;7.00;6.00;;;;;20.38;32.37;98201.94;6074715;28;98458;-64
2023/03/30 14:10:52;;;;;;;;;6.25;6.25;;;;;20.33;32.87;98197.38;6055856;28;98446;-65
2023/03/30 14:13:55;;;;;;;;;4.00;4.00;;;;;20.18;33.30;98189.41;6073767;28;96845;-64
2023/03/30 14:17:01;;;;;;;;;4.00;3.60;;;;;19.96;33.35;98200.22;6075016;28;96516;-64
2023/03/30 14:20:19;;;;;;;;;7.00;5.80;;;;;19.90;33.56;98188.53;6073293;28;97038;-64
2023/03/30 14:23:32;;;;;;;;;5.00;5.00;;;;;19.92;33.62;98190.16;6092030;28;96840;-64
2023/03/30 14:26:40;;;;;;;;;5.20;5.20;;;;;19.89;33.97;98188.81;6092171;28;96339;-64
2023/03/30 14:29:45;;;;;;;;;6.00;6.00;;;;;19.89;33.86;98195.09;6071944;28;96970;-64
2023/03/30 14:33:04;;;;;;;;;7.60;7.60;;;;;19.81;33.60;98192.25;6085864;28;96630;-64
2023/03/30 14:36:11;;;;;;;;;7.00;7.00;;;;;19.71;34.08;98184.19;6092386;28;96402;-64
2023/03/30 14:39:17;;;;;;;;;6.00;5.20;;;;;19.79;34.05;98191.75;6077475;28;96363;-63
2023/03/30 14:42:26;;;;;;;;;7.00;7.00;;;;;19.73;34.18;98184.72;6088428;28;96569;-64
2023/03/30 14:45:29;;;;;;;;;8.60;7.60;;;;;19.67;34.12;98184.00;6075516;28;96879;-68
2023/03/30 14:48:36;;;;;;;;;8.60;7.00;;;;;19.62;34.31;98175.06;6079205;28;96733;-68
2023/03/30 14:51:42;;;;;;;;;7.00;7.00;;;;;19.63;34.17;98172.03;6093936;28;97104;-68
2023/03/30 14:54:50;;;;;;;;;10.00;7.00;;;;;19.45;34.78;98184.59;6092250;28;96429;-68